createdAt,value
2018-11-25T00:00:11.896Z,100.00
2018-11-25T00:02:40.629Z,100.00
2018-11-25T00:05:09.909Z,100.00
2018-11-25T00:07:38.604Z,100.00
2018-11-25T00:10:07.698Z,100.00
2018-11-25T00:12:36.528Z,100.00
2018-11-25T00:15:09.367Z,100.00
2018-11-25T00:17:37.983Z,100.00
2018-11-25T00:20:10.411Z,100.00
2018-11-25T00:22:39.060Z,100.00
2018-11-25T00:25:09.158Z,100.00
2018-11-25T00:27:37.780Z,100.00
2018-11-25T00:30:09.112Z,100.00
2018-11-25T00:32:37.828Z,100.00
2018-11-25T00:35:07.858Z,100.00
2018-11-25T00:37:36.584Z,100.00
2018-11-25T00:40:06.834Z,100.00
2018-11-25T00:42:35.464Z,100.00
2018-11-25T00:45:08.708Z,100.00
2018-11-25T00:47:37.706Z,100.00
2018-11-25T00:50:09.527Z,100.00
2018-11-25T00:52:38.510Z,100.00
2018-11-25T00:55:09.997Z,100.00
2018-11-25T00:57:38.639Z,100.00
2018-11-25T01:00:10.260Z,100.00
2018-11-25T01:02:38.970Z,100.00
2018-11-25T01:05:08.584Z,100.00
2018-11-25T01:07:37.191Z,100.00
2018-11-25T01:10:11.666Z,100.00
2018-11-25T01:12:40.441Z,100.00
2018-11-25T01:15:13.683Z,100.00
2018-11-25T01:17:42.432Z,100.00
2018-11-25T01:20:14.361Z,100.00
2018-11-25T01:22:43.156Z,100.00
2018-11-25T01:25:12.038Z,100.00
2018-11-25T01:27:40.650Z,100.00
2018-11-25T01:30:13.230Z,100.00
2018-11-25T01:32:42.019Z,100.00
2018-11-25T01:35:12.436Z,100.00
2018-11-25T01:37:41.359Z,100.00
2018-11-25T01:40:14.876Z,100.00
2018-11-25T01:42:44.036Z,100.00
2018-11-25T01:45:14.937Z,100.00
2018-11-25T01:47:44.001Z,100.00
2018-11-25T01:50:13.809Z,100.00
2018-11-25T01:52:42.449Z,100.00
2018-11-25T01:55:12.416Z,100.00
2018-11-25T01:57:41.044Z,100.00
2018-11-25T02:00:16.767Z,100.00
2018-11-25T02:02:45.435Z,100.00
2018-11-25T02:05:14.133Z,100.00
2018-11-25T02:07:43.112Z,100.00
2018-11-25T02:10:13.221Z,100.00
2018-11-25T02:12:41.872Z,100.00
2018-11-25T02:15:11.754Z,100.00
2018-11-25T02:17:40.376Z,100.00
2018-11-25T02:20:13.466Z,100.00
2018-11-25T02:22:42.056Z,100.00
2018-11-25T02:25:10.701Z,100.00
2018-11-25T02:27:39.479Z,100.00
2018-11-25T02:30:12.457Z,100.00
2018-11-25T02:32:41.100Z,100.00
2018-11-25T02:35:10.794Z,100.00
2018-11-25T02:37:39.475Z,100.00
2018-11-25T02:40:13.029Z,100.00
2018-11-25T02:42:41.645Z,100.00
2018-11-25T02:45:12.289Z,100.00
2018-11-25T02:47:40.941Z,100.00
2018-11-25T02:50:27.014Z,100.00
2018-11-25T02:52:56.856Z,100.00
2018-11-25T02:55:26.532Z,100.00
2018-11-25T02:57:55.281Z,100.00
2018-11-25T03:00:23.925Z,100.00
2018-11-25T03:02:52.746Z,100.00
2018-11-25T03:05:21.508Z,100.00
2018-11-25T03:07:50.143Z,100.00
2018-11-25T03:10:18.978Z,100.00
2018-11-25T03:12:47.616Z,100.00
2018-11-25T03:15:17.514Z,100.00
2018-11-25T03:17:46.984Z,100.00
2018-11-25T03:20:16.427Z,100.00
2018-11-25T03:22:45.121Z,100.00
2018-11-25T03:25:16.859Z,100.00
2018-11-25T03:27:45.655Z,100.00
2018-11-25T03:30:21.096Z,100.00
2018-11-25T03:32:51.888Z,100.00
2018-11-25T03:35:20.543Z,100.00
2018-11-25T03:37:49.167Z,100.00
2018-11-25T03:40:18.579Z,100.00
2018-11-25T03:42:47.456Z,76.17
2018-11-25T03:45:17.056Z,76.45
2018-11-25T03:47:45.758Z,76.24
2018-11-25T03:50:14.971Z,76.07
2018-11-25T03:52:43.654Z,76.18
2018-11-25T03:55:18.765Z,76.21
2018-11-25T03:57:48.028Z,76.41
2018-11-25T04:00:28.608Z,76.44
2018-11-25T04:02:57.313Z,76.41
2018-11-25T04:05:25.925Z,76.33
2018-11-25T04:07:54.569Z,76.30
2018-11-25T04:10:23.218Z,76.28
2018-11-25T04:12:51.848Z,76.28
2018-11-25T04:15:20.645Z,76.38
2018-11-25T04:17:49.475Z,76.55
2018-11-25T04:20:19.158Z,76.42
2018-11-25T04:22:48.057Z,76.38
2018-11-25T04:25:16.757Z,76.46
2018-11-25T04:27:45.443Z,76.64
2018-11-25T04:30:15.869Z,76.54
2018-11-25T04:32:45.513Z,76.62
2018-11-25T04:35:14.286Z,76.71
2018-11-25T04:37:42.947Z,76.93
2018-11-25T04:40:12.751Z,77.11
2018-11-25T04:42:41.744Z,77.00
2018-11-25T04:45:12.193Z,77.02
2018-11-25T04:47:40.915Z,76.97
2018-11-25T04:50:14.581Z,76.96
2018-11-25T04:52:43.279Z,76.78
2018-11-25T04:55:12.244Z,76.81
2018-11-25T04:57:40.849Z,76.94
2018-11-25T05:00:11.764Z,76.87
2018-11-25T05:02:41.147Z,76.71
2018-11-25T05:05:11.914Z,76.74
2018-11-25T05:07:40.966Z,76.56
2018-11-25T05:10:13.325Z,76.64
2018-11-25T05:12:42.126Z,76.60
2018-11-25T05:15:26.551Z,76.42
2018-11-25T05:17:55.153Z,76.60
2018-11-25T05:20:23.900Z,76.63
2018-11-25T05:22:52.516Z,76.69
2018-11-25T05:25:21.283Z,76.30
2018-11-25T05:27:50.055Z,76.78
2018-11-25T05:30:20.601Z,76.79
2018-11-25T05:32:49.269Z,76.82
2018-11-25T05:35:19.485Z,76.89
2018-11-25T05:37:48.149Z,76.62
2018-11-25T05:40:17.217Z,76.81
2018-11-25T05:42:45.960Z,76.64
2018-11-25T05:45:16.637Z,76.53
2018-11-25T05:47:45.306Z,76.73
2018-11-25T05:50:14.990Z,76.51
2018-11-25T05:52:43.606Z,76.69
2018-11-25T05:55:12.935Z,76.66
2018-11-25T05:57:41.784Z,76.68
